Balla — 9HA4535 — position and weather

sailwx.info

Track history (hours):
 
Tides and Currents Weather Stations Pressure Air Temp Water Temp Dewpoint Dewpoint Depression Visibility Wind Speed Wind Dir Waves Ship Positions

Balla

Last reported at 2018-May-24 23:40 UTC. Time now 2018-May-25 01:28 UTC.
Position N 36°08' W 005°23'.

Length 250 m; draft 11.4 m.

Type: Ship (hazmat cat A). MMSI: 248152000.

Date/timePositionNaut miles runAvg speedWind from/ knotsBaromVisibWave heightAir tempDewpointWater temp
2018-May-24 23:40N 36°08' W 005°23'0 0.2
2018-May-24 23:22N 36°08' W 005°23'0 0.2
2018-May-24 22:58N 36°08' W 005°23'0 0.2
2018-May-24 22:28N 36°08' W 005°23'0 0.1
2018-May-24 21:58N 36°08' W 005°23'0 0.1
2018-May-24 21:28N 36°08' W 005°23'0 0.1
2018-May-24 20:55N 36°08' W 005°23'0 0.1
2018-May-24 20:22N 36°08' W 005°23'0 0.2
2018-May-24 19:58N 36°08' W 005°22'0 0.0
2018-May-24 08:28N 36°08' W 005°23'0 0.0
2018-May-24 07:40N 36°08' W 005°23'0 0.1
2018-May-24 07:28N 36°08' W 005°23'0 0.0
2018-May-24 06:34N 36°08' W 005°23'0 0.1
2018-May-24 06:28N 36°08' W 005°23'0 0.1
2018-May-24 05:55N 36°08' W 005°23'0 0.2
2018-May-24 04:43N 36°08' W 005°23'0 0.0
2018-May-24 04:28N 36°08' W 005°23'0 0.0
2018-May-24 03:58N 36°08' W 005°23'0 0.0
2018-May-24 03:28N 36°08' W 005°23'0 0.0
2018-May-24 02:58N 36°08' W 005°23'0 0.0
2018-May-24 02:28N 36°08' W 005°23'0 0.1
2018-May-24 01:58N 36°08' W 005°23'0 0.0
2018-May-24 01:28N 36°08' W 005°23'0 0.1
2018-May-24 00:52N 36°08' W 005°23'0 0.2
2018-May-24 00:31N 36°08' W 005°23'1 2.1
2018-May-24 00:00N 36°07' W 005°23'3 5.2
2018-May-23 23:31N 36°05' W 005°20'4 8.6
2018-May-23 23:01N 36°06' W 005°15'5 9.4
2018-May-23 22:30N 36°07' W 005°09'0 0.3
2018-May-23 21:34N 36°08' W 005°09'0 1.8
2018-May-23 21:30N 36°08' W 005°09'1 1.8
2018-May-23 21:00N 36°07' W 005°11'1 1.5
2018-May-23 20:20N 36°07' W 005°12'0 1.3
2018-May-23 20:00N 36°07' W 005°12'3 6.5
2018-May-23 19:30N 36°04' W 005°14'612.5
2018-May-23 19:01N 36°00' W 005°20'611.3
2018-May-23 18:31N 35°58' W 005°27'24910.5
2018-May-22 18:43N 37°59' W 009°59'311.8
2018-May-22 18:27N 38°02' W 010°00'1611.6
2018-May-22 17:07N 38°18' W 010°05'311.5
2018-May-22 16:53N 38°20' W 010°05'411.7
2018-May-22 16:31N 38°24' W 010°07'612.0
2018-May-22 15:58N 38°31' W 010°09'711.7
2018-May-22 15:24N 38°37' W 010°10'511.6
2018-May-22 15:00N 38°42' W 010°12'611.8
2018-May-22 14:30N 38°48' W 010°12'612.1
2018-May-22 14:00N 38°54' W 010°12'612.0
2018-May-22 13:30N 38°60' W 010°12'611.6
2018-May-22 13:00N 39°05' W 010°12'611.9
2018-May-22 12:30N 39°11' W 010°12'611.6
2018-May-22 11:59N 39°17' W 010°12'611.6
2018-May-22 11:30N 39°23' W 010°12'1011.4
2018-May-22 10:40N 39°33' W 010°12'47611.5
2018-May-20 17:18N 47°11' W 007°12'612.1
2018-May-20 16:49N 47°16' W 007°08'412.3
2018-May-20 16:30N 47°19' W 007°05'1912.3
2018-May-20 14:54N 47°36' W 006°52'512.6
2018-May-20 14:30N 47°41' W 006°48'912.8
2018-May-20 13:48N 47°49' W 006°42'1613.2
2018-May-20 12:34N 48°03' W 006°30'913.5
2018-May-20 11:53N 48°11' W 006°23'1913.3
2018-May-20 10:26N 48°28' W 006°09'512.8
2018-May-20 10:01N 48°33' W 006°05'612.3
2018-May-20 09:30N 48°38' W 006°01'612.0
2018-May-20 09:00N 48°44' W 005°57'611.7
2018-May-20 08:30N 48°49' W 005°53'611.1
2018-May-20 08:01N 48°54' W 005°49'510.8
2018-May-20 07:30N 48°57' W 005°42'510.9
2018-May-20 07:01N 48°59' W 005°35'611.0
2018-May-20 06:31N 49°02' W 005°28'511.0
2018-May-20 06:01N 49°05' W 005°21'611.3
2018-May-20 05:31N 49°08' W 005°13'611.6
2018-May-20 05:01N 49°11' W 005°05'612.1
2018-May-20 04:31N 49°14' W 004°57'712.6
2018-May-20 03:59N 49°17' W 004°49'613.1
2018-May-20 03:30N 49°20' W 004°40'713.6
2018-May-20 03:00N 49°24' W 004°31'713.8
2018-May-20 02:30N 49°27' W 004°22'713.9
2018-May-20 02:00N 49°31' W 004°13'713.9
2018-May-20 01:30N 49°34' W 004°04'713.5
2018-May-20 01:00N 49°38' W 003°55'713.1
2018-May-20 00:30N 49°41' W 003°46'612.5
2018-May-20 00:00N 49°44' W 003°38'612.0
2018-May-19 23:30N 49°47' W 003°29'611.4
2018-May-19 23:00N 49°50' W 003°22'510.9
2018-May-19 22:30N 49°53' W 003°15'5 9.4
2018-May-19 22:00N 49°55' W 003°08'510.6
2018-May-19 21:30N 49°58' W 003°01'510.6
2018-May-19 21:00N 50°00' W 002°54'611.0
2018-May-19 20:30N 50°01' W 002°46'611.5
2018-May-19 20:00N 50°03' W 002°37'612.1
2018-May-19 19:30N 50°05' W 002°28'612.9
2018-May-19 19:00N 50°06' W 002°18'713.8
2018-May-19 18:30N 50°08' W 002°08'714.7
2018-May-19 18:00N 50°11' W 001°57'815.4
2018-May-19 17:30N 50°13' W 001°45'815.5
2018-May-19 17:00N 50°15' W 001°34'815.5
2018-May-19 16:30N 50°17' W 001°22'815.5
2018-May-19 16:00N 50°19' W 001°10'815.2
2018-May-19 15:31N 50°21' W 000°59'713.9
2018-May-19 15:00N 50°23' W 000°48'612.9
2018-May-19 14:30N 50°25' W 000°39'612.3
2018-May-19 14:00N 50°26' W 000°29'611.9
2018-May-19 13:30N 50°28' W 000°20'611.4
2018-May-19 13:00N 50°29' W 000°12'510.8
2018-May-19 12:30N 50°31' W 000°03'510.3
2018-May-19 12:00N 50°32' E 000°05'5 9.9
2018-May-19 11:30N 50°33' E 000°12'5 9.3
2018-May-19 11:00N 50°35' E 000°19'5 9.6
2018-May-19 10:30N 50°36' E 000°26'510.5
2018-May-19 10:00N 50°38' E 000°34'611.5
2018-May-19 09:30N 50°41' E 000°42'612.5
2018-May-19 09:00N 50°45' E 000°50'713.1
2018-May-19 08:30N 50°49' E 000°58'713.4
2018-May-19 08:00N 50°53' E 001°06'1113.3
2018-May-19 07:10N 51°00' E 001°19'212.8
2018-May-19 07:00N 51°01' E 001°22'612.5
2018-May-19 06:30N 51°05' E 001°30'611.8
2018-May-19 06:00N 51°09' E 001°37'611.1
2018-May-19 05:30N 51°13' E 001°44'510.7
2018-May-19 05:00N 51°17' E 001°48'510.2
2018-May-19 04:30N 51°22' E 001°51'510.0
2018-May-19 04:00N 51°26' E 001°55'510.0
2018-May-19 03:30N 51°31' E 001°59'510.5
2018-May-19 03:00N 51°34' E 002°05'611.1
2018-May-19 02:30N 51°39' E 002°11'611.1
2018-May-19 01:56N 51°43' E 002°18'511.4
2018-May-19 01:29N 51°47' E 002°23'612.0
2018-May-19 01:00N 51°51' E 002°30'712.7
2018-May-19 00:28N 51°56' E 002°37'613.0
2018-May-19 00:00N 52°01' E 002°43'713.2
2018-May-18 23:30N 52°06' E 002°50'1412.0
2018-May-18 22:21N 52°13' E 003°09'4 9.9
2018-May-18 21:54N 52°11' E 003°16'512.2
2018-May-18 21:28N 52°11' E 003°24'511.2
2018-May-18 21:00N 52°08' E 003°31'3 6.6
2018-May-18 20:30N 52°08' E 003°37'1 0.5
2018-May-18 19:01N 52°09' E 003°36'0 0.0
2018-May-18 18:52N 52°09' E 003°36'0 0.0
2018-May-18 18:18N 52°09' E 003°36'0 0.0
2018-May-18 17:58N 52°09' E 003°36'0 0.0
2018-May-18 17:22N 52°09' E 003°36'0 0.0
2018-May-18 16:10N 52°09' E 003°36'0 0.0
2018-May-18 15:57N 52°09' E 003°36'0 0.0
2018-May-18 15:31N 52°09' E 003°36'0 0.1
2018-May-18 14:57N 52°09' E 003°36'0 0.2
2018-May-18 14:28N 52°08' E 003°36'0 0.1
2018-May-18 13:51N 52°08' E 003°36'0 0.1
2018-May-18 13:30N 52°08' E 003°36'0 0.1
2018-May-18 12:46N 52°08' E 003°36'0 0.0
2018-May-18 12:30N 52°08' E 003°36'0 0.0
2018-May-18 12:00N 52°08' E 003°36'0 0.0
2018-May-18 11:30N 52°08' E 003°36'0 0.0
2018-May-18 10:57N 52°08' E 003°36'0 0.0
2018-May-18 10:27N 52°08' E 003°36'0 0.0
2018-May-18 09:51N 52°08' E 003°36'0 0.0
2018-May-18 09:30N 52°08' E 003°36'0 0.0
2018-May-18 09:00N 52°08' E 003°36'0 0.0
2018-May-18 08:30N 52°08' E 003°36'0 0.0
2018-May-18 08:00N 52°08' E 003°36'0 0.0
2018-May-18 07:31N 52°08' E 003°36'0 0.3
2018-May-18 06:46N 52°09' E 003°36'0 0.1
2018-May-18 06:31N 52°09' E 003°36'0 0.0
2018-May-18 06:01N 52°09' E 003°36'0 0.0
2018-May-18 05:30N 52°09' E 003°36'0 0.0
2018-May-18 04:58N 52°09' E 003°36'0 0.0
2018-May-18 04:25N 52°09' E 003°36'0 0.0
2018-May-18 03:52N 52°09' E 003°36'0 0.0
2018-May-18 03:28N 52°09' E 003°36'0 0.1
2018-May-18 02:55N 52°09' E 003°36'0 0.2
2018-May-18 02:26N 52°09' E 003°36'0 0.2
2018-May-18 01:56N 52°08' E 003°36'0 0.1
2018-May-18 01:26N 52°08' E 003°36'0 0.1
2018-May-18 00:56N 52°08' E 003°36'0 0.1
2018-May-18 00:26N 52°08' E 003°36'0 0.0
2018-May-17 23:56N 52°08' E 003°36'0 0.0
2018-May-17 23:29N 52°08' E 003°36'0 0.0
2018-May-17 22:50N 52°08' E 003°36'0 0.0
2018-May-17 22:23N 52°08' E 003°36'0 0.0
2018-May-17 21:59N 52°08' E 003°36'0 0.0
2018-May-17 21:26N 52°08' E 003°36'0 0.0
2018-May-17 20:56N 52°08' E 003°36'0 0.0
2018-May-17 20:29N 52°08' E 003°36'0 0.0
2018-May-17 19:59N 52°08' E 003°36'0 0.0
2018-May-17 19:29N 52°08' E 003°36'0 0.0
2018-May-17 18:59N 52°08' E 003°36'0 0.0
2018-May-17 18:29N 52°08' E 003°36'0 0.2
2018-May-17 17:47N 52°09' E 003°36'0 0.1
2018-May-17 17:30N 52°09' E 003°36'0 0.1
2018-May-17 16:56N 52°09' E 003°36'0 0.0
2018-May-17 16:24N 52°09' E 003°36'0 0.0
2018-May-17 15:59N 52°09' E 003°36'0 0.0
2018-May-17 15:29N 52°09' E 003°36'0 0.1
2018-May-17 14:59N 52°09' E 003°36'0 0.2
2018-May-17 14:30N 52°09' E 003°36'0 0.2
2018-May-17 13:52N 52°08' E 003°36'0 0.1
2018-May-17 13:25N 52°08' E 003°36'0 0.0
2018-May-17 12:58N 52°08' E 003°36'0 0.1
2018-May-17 12:28N 52°08' E 003°36'0 0.0
2018-May-17 11:58N 52°08' E 003°36'0 0.1
2018-May-17 11:28N 52°08' E 003°36'0 0.0
2018-May-17 10:55N 52°08' E 003°36'0 0.0
2018-May-17 10:28N 52°08' E 003°36'0 0.0
2018-May-17 09:52N 52°08' E 003°36'0 0.0
2018-May-17 09:22N 52°08' E 003°36'0 0.0
2018-May-17 08:58N 52°08' E 003°36'0 0.0
2018-May-17 08:28N 52°08' E 003°36'0 0.0
2018-May-17 07:55N 52°08' E 003°36'0 0.0
2018-May-17 07:28N 52°08' E 003°36'0 0.0
2018-May-17 06:55N 52°08' E 003°36'0 0.0
2018-May-17 06:28N 52°08' E 003°36'0 0.0
2018-May-17 05:55N 52°08' E 003°36'0 0.2
2018-May-17 05:22N 52°08' E 003°36'0 0.2
2018-May-17 05:00N 52°09' E 003°36'0 0.1
2018-May-17 04:28N 52°09' E 003°36'0 0.1
2018-May-17 04:00N 52°09' E 003°36'0 0.0
2018-May-17 03:26N 52°09' E 003°36'0 0.0
2018-May-17 03:00N 52°09' E 003°36'0 0.1
2018-May-17 02:30N 52°09' E 003°36'0 0.2
2018-May-17 01:59N 52°08' E 003°36'0 0.2
2018-May-17 01:25N 52°08' E 003°36'0 0.1
2018-May-17 00:49N 52°08' E 003°36'0 0.0
2018-May-17 00:28N 52°08' E 003°36'0 0.0
2018-May-16 23:52N 52°08' E 003°36'0 0.1
2018-May-16 23:22N 52°08' E 003°36'0 0.0
2018-May-16 22:58N 52°08' E 003°36'0 0.0
2018-May-16 22:28N 52°08' E 003°36'0 0.0
2018-May-16 21:58N 52°08' E 003°36'0 0.0
2018-May-16 21:28N 52°08' E 003°36'0 0.0
2018-May-16 20:55N 52°08' E 003°36'0 0.0
2018-May-16 20:28N 52°08' E 003°36'0 0.0
2018-May-16 19:58N 52°08' E 003°36'0 0.0
2018-May-16 19:22N 52°08' E 003°36'0 0.0
2018-May-16 18:55N 52°08' E 003°36'0 0.0
2018-May-16 18:25N 52°08' E 003°36'0 0.0
2018-May-16 17:58N 52°08' E 003°36'0 0.0
2018-May-16 17:25N 52°08' E 003°36'0 0.1
2018-May-16 16:46N 52°08' E 003°36'0 0.2
2018-May-16 16:28N 52°08' E 003°36'0 0.1
2018-May-16 15:58N 52°08' E 003°36'0 0.1
2018-May-16 15:25N 52°09' E 003°36'0 0.0
2018-May-16 14:52N 52°09' E 003°36'0 0.1
2018-May-16 14:28N 52°09' E 003°36'0 0.1
2018-May-16 13:58N 52°09' E 003°36'0 0.1
2018-May-16 13:28N 52°08' E 003°36'0 0.1
2018-May-16 12:55N 52°08' E 003°36'0 0.1
2018-May-16 12:19N 52°08' E 003°36'0 0.0
2018-May-16 11:58N 52°08' E 003°36'0 0.0
2018-May-16 11:28N 52°08' E 003°36'0 0.0
2018-May-16 10:58N 52°08' E 003°36'0 0.0
2018-May-16 10:25N 52°08' E 003°36'0 0.0
2018-May-16 09:55N 52°08' E 003°36'0 0.0
2018-May-16 09:28N 52°08' E 003°36'0 0.0
2018-May-16 08:58N 52°08' E 003°36'0 0.0
2018-May-16 08:28N 52°08' E 003°36'0 0.0
2018-May-16 07:58N 52°08' E 003°36'0 0.0
2018-May-16 07:25N 52°08' E 003°36'0 0.0
2018-May-16 06:58N 52°08' E 003°36'0 0.0
2018-May-16 06:28N 52°08' E 003°36'0 0.0
2018-May-16 05:58N 52°08' E 003°36'0 0.2
2018-May-16 05:28N 52°08' E 003°36'0 0.2
2018-May-16 04:55N 52°09' E 003°36'0 0.1
2018-May-16 04:28N 52°09' E 003°36'0 0.0
2018-May-16 03:58N 52°09' E 003°36'0 0.0
2018-May-16 03:25N 52°09' E 003°36'0 0.0
2018-May-16 02:55N 52°09' E 003°36'0 0.0
2018-May-16 02:28N 52°09' E 003°36'0 0.0
2018-May-16 01:58N 52°09' E 003°36'0 0.0
2018-May-16 01:28N 52°09' E 003°36'0 0.1
2018-May-16 00:58N 52°09' E 003°36'0 0.3
2018-May-16 00:28N 52°08' E 003°36'0 0.1
2018-May-15 23:58N 52°08' E 003°36'0 0.1
2018-May-15 23:28N 52°08' E 003°36'0 0.0
2018-May-15 22:58N 52°08' E 003°36'0 0.0
2018-May-15 22:28N 52°08' E 003°36'0 0.0
2018-May-15 21:58N 52°08' E 003°36'0 0.0
2018-May-15 21:25N 52°08' E 003°36'0 0.0
2018-May-15 20:58N 52°08' E 003°36'0 0.0
2018-May-15 20:25N 52°08' E 003°36'0 0.0
2018-May-15 19:58N 52°08' E 003°36'0 0.0
2018-May-15 19:28N 52°08' E 003°36'0 0.1
2018-May-15 18:52N 52°08' E 003°36'0 0.0
2018-May-15 18:28N 52°08' E 003°36'0 0.1
2018-May-15 17:55N 52°08' E 003°36'0 0.3
2018-May-15 17:25N 52°09' E 003°36'0 0.1
2018-May-15 16:58N 52°09' E 003°36'0 0.0
2018-May-15 16:25N 52°09' E 003°36'0 0.0
2018-May-15 15:55N 52°09' E 003°36'0 0.0
2018-May-15 15:25N 52°09' E 003°36'0 0.0
2018-May-15 14:58N 52°09' E 003°36'0 0.0
2018-May-15 14:28N 52°09' E 003°36'0 0.0
2018-May-15 13:46N 52°09' E 003°36'0 0.0
2018-May-15 13:19N 52°09' E 003°36'0 0.1
2018-May-15 12:40N 52°09' E 003°36'0 0.2
2018-May-15 12:28N 52°09' E 003°36'0 0.2
2018-May-15 11:58N 52°08' E 003°36'0 0.1
2018-May-15 11:28N 52°08' E 003°36'0 0.1
2018-May-15 10:58N 52°08' E 003°36'0 0.0
2018-May-15 10:28N 52°08' E 003°36'0 0.0
2018-May-15 09:58N 52°08' E 003°36'0 0.0
2018-May-15 09:28N 52°08' E 003°36'0 0.0
2018-May-15 08:58N 52°08' E 003°36'0 0.0
2018-May-15 08:28N 52°08' E 003°36'0 0.0
2018-May-15 07:58N 52°08' E 003°36'0 0.0
2018-May-15 07:28N 52°08' E 003°36'0 0.0
2018-May-15 06:58N 52°08' E 003°36'0 0.1
2018-May-15 06:28N 52°08' E 003°36'0 0.0
2018-May-15 05:58N 52°08' E 003°36'0 0.0
2018-May-15 05:28N 52°08' E 003°36'0 0.1
2018-May-15 04:01N 52°09' E 003°36'0 0.0
2018-May-15 03:49N 52°09' E 003°36'0 0.0
2018-May-15 02:08N 52°09' E 003°36'0 0.0
2018-May-15 01:58N 52°09' E 003°36'0 0.0
2018-May-15 01:28N 52°09' E 003°36'0 0.0
2018-May-15 00:52N 52°09' E 003°36'0 0.2
2018-May-15 00:25N 52°09' E 003°36'0 0.2
2018-May-14 23:58N 52°08' E 003°36'  
Track history (hours):
 
Tides and Currents Weather Stations Pressure Air Temp Water Temp Dewpoint Dewpoint Depression Visibility Wind Speed Wind Dir Waves Ship Positions

Balla

Last reported at 2018-May-24 23:40 UTC. Time now 2018-May-25 01:28 UTC.
Position N 36°08' W 005°23'.

Length 250 m; draft 11.4 m.

Type: Ship (hazmat cat A). MMSI: 248152000.

Date/timePositionNaut miles runAvg speedWind from/ knotsBaromVisibWave heightAir tempDewpointWater temp
2018-May-24 23:40N 36°08' W 005°23'0 0.2
2018-May-24 23:22N 36°08' W 005°23'0 0.2
2018-May-24 22:58N 36°08' W 005°23'0 0.2
2018-May-24 22:28N 36°08' W 005°23'0 0.1
2018-May-24 21:58N 36°08' W 005°23'0 0.1
2018-May-24 21:28N 36°08' W 005°23'0 0.1
2018-May-24 20:55N 36°08' W 005°23'0 0.1
2018-May-24 20:22N 36°08' W 005°23'0 0.2
2018-May-24 19:58N 36°08' W 005°22'0 0.0
2018-May-24 08:28N 36°08' W 005°23'0 0.0
2018-May-24 07:40N 36°08' W 005°23'0 0.1
2018-May-24 07:28N 36°08' W 005°23'0 0.0
2018-May-24 06:34N 36°08' W 005°23'0 0.1
2018-May-24 06:28N 36°08' W 005°23'0 0.1
2018-May-24 05:55N 36°08' W 005°23'0 0.2
2018-May-24 04:43N 36°08' W 005°23'0 0.0
2018-May-24 04:28N 36°08' W 005°23'0 0.0
2018-May-24 03:58N 36°08' W 005°23'0 0.0
2018-May-24 03:28N 36°08' W 005°23'0 0.0
2018-May-24 02:58N 36°08' W 005°23'0 0.0
2018-May-24 02:28N 36°08' W 005°23'0 0.1
2018-May-24 01:58N 36°08' W 005°23'0 0.0
2018-May-24 01:28N 36°08' W 005°23'0 0.1
2018-May-24 00:52N 36°08' W 005°23'0 0.2
2018-May-24 00:31N 36°08' W 005°23'1 2.1
2018-May-24 00:00N 36°07' W 005°23'3 5.2
2018-May-23 23:31N 36°05' W 005°20'4 8.6
2018-May-23 23:01N 36°06' W 005°15'5 9.4
2018-May-23 22:30N 36°07' W 005°09'0 0.3
2018-May-23 21:34N 36°08' W 005°09'0 1.8
2018-May-23 21:30N 36°08' W 005°09'1 1.8
2018-May-23 21:00N 36°07' W 005°11'1 1.5
2018-May-23 20:20N 36°07' W 005°12'0 1.3
2018-May-23 20:00N 36°07' W 005°12'3 6.5
2018-May-23 19:30N 36°04' W 005°14'612.5
2018-May-23 19:01N 36°00' W 005°20'611.3
2018-May-23 18:31N 35°58' W 005°27'24910.5
2018-May-22 18:43N 37°59' W 009°59'311.8
2018-May-22 18:27N 38°02' W 010°00'1611.6
2018-May-22 17:07N 38°18' W 010°05'311.5
2018-May-22 16:53N 38°20' W 010°05'411.7
2018-May-22 16:31N 38°24' W 010°07'612.0
2018-May-22 15:58N 38°31' W 010°09'711.7
2018-May-22 15:24N 38°37' W 010°10'511.6
2018-May-22 15:00N 38°42' W 010°12'611.8
2018-May-22 14:30N 38°48' W 010°12'612.1
2018-May-22 14:00N 38°54' W 010°12'612.0
2018-May-22 13:30N 38°60' W 010°12'611.6
2018-May-22 13:00N 39°05' W 010°12'611.9
2018-May-22 12:30N 39°11' W 010°12'611.6
2018-May-22 11:59N 39°17' W 010°12'611.6
2018-May-22 11:30N 39°23' W 010°12'1011.4
2018-May-22 10:40N 39°33' W 010°12'47611.5
2018-May-20 17:18N 47°11' W 007°12'612.1
2018-May-20 16:49N 47°16' W 007°08'412.3
2018-May-20 16:30N 47°19' W 007°05'1912.3
2018-May-20 14:54N 47°36' W 006°52'512.6
2018-May-20 14:30N 47°41' W 006°48'912.8
2018-May-20 13:48N 47°49' W 006°42'1613.2
2018-May-20 12:34N 48°03' W 006°30'913.5
2018-May-20 11:53N 48°11' W 006°23'1913.3
2018-May-20 10:26N 48°28' W 006°09'512.8
2018-May-20 10:01N 48°33' W 006°05'612.3
2018-May-20 09:30N 48°38' W 006°01'612.0
2018-May-20 09:00N 48°44' W 005°57'611.7
2018-May-20 08:30N 48°49' W 005°53'611.1
2018-May-20 08:01N 48°54' W 005°49'510.8
2018-May-20 07:30N 48°57' W 005°42'510.9
2018-May-20 07:01N 48°59' W 005°35'611.0
2018-May-20 06:31N 49°02' W 005°28'511.0
2018-May-20 06:01N 49°05' W 005°21'611.3
2018-May-20 05:31N 49°08' W 005°13'611.6
2018-May-20 05:01N 49°11' W 005°05'612.1
2018-May-20 04:31N 49°14' W 004°57'712.6
2018-May-20 03:59N 49°17' W 004°49'613.1
2018-May-20 03:30N 49°20' W 004°40'713.6
2018-May-20 03:00N 49°24' W 004°31'713.8
2018-May-20 02:30N 49°27' W 004°22'713.9
2018-May-20 02:00N 49°31' W 004°13'713.9
2018-May-20 01:30N 49°34' W 004°04'713.5
2018-May-20 01:00N 49°38' W 003°55'713.1
2018-May-20 00:30N 49°41' W 003°46'612.5
2018-May-20 00:00N 49°44' W 003°38'612.0
2018-May-19 23:30N 49°47' W 003°29'611.4
2018-May-19 23:00N 49°50' W 003°22'510.9
2018-May-19 22:30N 49°53' W 003°15'5 9.4
2018-May-19 22:00N 49°55' W 003°08'510.6
2018-May-19 21:30N 49°58' W 003°01'510.6
2018-May-19 21:00N 50°00' W 002°54'611.0
2018-May-19 20:30N 50°01' W 002°46'611.5
2018-May-19 20:00N 50°03' W 002°37'612.1
2018-May-19 19:30N 50°05' W 002°28'612.9
2018-May-19 19:00N 50°06' W 002°18'713.8
2018-May-19 18:30N 50°08' W 002°08'714.7
2018-May-19 18:00N 50°11' W 001°57'815.4
2018-May-19 17:30N 50°13' W 001°45'815.5
2018-May-19 17:00N 50°15' W 001°34'815.5
2018-May-19 16:30N 50°17' W 001°22'815.5
2018-May-19 16:00N 50°19' W 001°10'815.2
2018-May-19 15:31N 50°21' W 000°59'713.9
2018-May-19 15:00N 50°23' W 000°48'612.9
2018-May-19 14:30N 50°25' W 000°39'612.3
2018-May-19 14:00N 50°26' W 000°29'611.9
2018-May-19 13:30N 50°28' W 000°20'611.4
2018-May-19 13:00N 50°29' W 000°12'510.8
2018-May-19 12:30N 50°31' W 000°03'510.3
2018-May-19 12:00N 50°32' E 000°05'5 9.9
2018-May-19 11:30N 50°33' E 000°12'5 9.3
2018-May-19 11:00N 50°35' E 000°19'5 9.6
2018-May-19 10:30N 50°36' E 000°26'510.5
2018-May-19 10:00N 50°38' E 000°34'611.5
2018-May-19 09:30N 50°41' E 000°42'612.5
2018-May-19 09:00N 50°45' E 000°50'713.1
2018-May-19 08:30N 50°49' E 000°58'713.4
2018-May-19 08:00N 50°53' E 001°06'1113.3
2018-May-19 07:10N 51°00' E 001°19'212.8
2018-May-19 07:00N 51°01' E 001°22'612.5
2018-May-19 06:30N 51°05' E 001°30'611.8
2018-May-19 06:00N 51°09' E 001°37'611.1
2018-May-19 05:30N 51°13' E 001°44'510.7
2018-May-19 05:00N 51°17' E 001°48'510.2
2018-May-19 04:30N 51°22' E 001°51'510.0
2018-May-19 04:00N 51°26' E 001°55'510.0
2018-May-19 03:30N 51°31' E 001°59'510.5
2018-May-19 03:00N 51°34' E 002°05'611.1
2018-May-19 02:30N 51°39' E 002°11'611.1
2018-May-19 01:56N 51°43' E 002°18'511.4
2018-May-19 01:29N 51°47' E 002°23'612.0
2018-May-19 01:00N 51°51' E 002°30'712.7
2018-May-19 00:28N 51°56' E 002°37'613.0
2018-May-19 00:00N 52°01' E 002°43'713.2
2018-May-18 23:30N 52°06' E 002°50'1412.0
2018-May-18 22:21N 52°13' E 003°09'4 9.9
2018-May-18 21:54N 52°11' E 003°16'512.2
2018-May-18 21:28N 52°11' E 003°24'511.2
2018-May-18 21:00N 52°08' E 003°31'3 6.6
2018-May-18 20:30N 52°08' E 003°37'1 0.5
2018-May-18 19:01N 52°09' E 003°36'0 0.0
2018-May-18 18:52N 52°09' E 003°36'0 0.0
2018-May-18 18:18N 52°09' E 003°36'0 0.0
2018-May-18 17:58N 52°09' E 003°36'0 0.0
2018-May-18 17:22N 52°09' E 003°36'0 0.0
2018-May-18 16:10N 52°09' E 003°36'0 0.0
2018-May-18 15:57N 52°09' E 003°36'0 0.0
2018-May-18 15:31N 52°09' E 003°36'0 0.1
2018-May-18 14:57N 52°09' E 003°36'0 0.2
2018-May-18 14:28N 52°08' E 003°36'0 0.1
2018-May-18 13:51N 52°08' E 003°36'0 0.1
2018-May-18 13:30N 52°08' E 003°36'0 0.1
2018-May-18 12:46N 52°08' E 003°36'0 0.0
2018-May-18 12:30N 52°08' E 003°36'0 0.0
2018-May-18 12:00N 52°08' E 003°36'0 0.0
2018-May-18 11:30N 52°08' E 003°36'0 0.0
2018-May-18 10:57N 52°08' E 003°36'0 0.0
2018-May-18 10:27N 52°08' E 003°36'0 0.0
2018-May-18 09:51N 52°08' E 003°36'0 0.0
2018-May-18 09:30N 52°08' E 003°36'0 0.0
2018-May-18 09:00N 52°08' E 003°36'0 0.0
2018-May-18 08:30N 52°08' E 003°36'0 0.0
2018-May-18 08:00N 52°08' E 003°36'0 0.0
2018-May-18 07:31N 52°08' E 003°36'0 0.3
2018-May-18 06:46N 52°09' E 003°36'0 0.1
2018-May-18 06:31N 52°09' E 003°36'0 0.0
2018-May-18 06:01N 52°09' E 003°36'0 0.0
2018-May-18 05:30N 52°09' E 003°36'0 0.0
2018-May-18 04:58N 52°09' E 003°36'0 0.0
2018-May-18 04:25N 52°09' E 003°36'0 0.0
2018-May-18 03:52N 52°09' E 003°36'0 0.0
2018-May-18 03:28N 52°09' E 003°36'0 0.1
2018-May-18 02:55N 52°09' E 003°36'0 0.2
2018-May-18 02:26N 52°09' E 003°36'0 0.2
2018-May-18 01:56N 52°08' E 003°36'0 0.1
2018-May-18 01:26N 52°08' E 003°36'0 0.1
2018-May-18 00:56N 52°08' E 003°36'0 0.1
2018-May-18 00:26N 52°08' E 003°36'0 0.0
2018-May-17 23:56N 52°08' E 003°36'0 0.0
2018-May-17 23:29N 52°08' E 003°36'0 0.0
2018-May-17 22:50N 52°08' E 003°36'0 0.0
2018-May-17 22:23N 52°08' E 003°36'0 0.0
2018-May-17 21:59N 52°08' E 003°36'0 0.0
2018-May-17 21:26N 52°08' E 003°36'0 0.0
2018-May-17 20:56N 52°08' E 003°36'0 0.0
2018-May-17 20:29N 52°08' E 003°36'0 0.0
2018-May-17 19:59N 52°08' E 003°36'0 0.0
2018-May-17 19:29N 52°08' E 003°36'0 0.0
2018-May-17 18:59N 52°08' E 003°36'0 0.0
2018-May-17 18:29N 52°08' E 003°36'0 0.2
2018-May-17 17:47N 52°09' E 003°36'0 0.1
2018-May-17 17:30N 52°09' E 003°36'0 0.1
2018-May-17 16:56N 52°09' E 003°36'0 0.0
2018-May-17 16:24N 52°09' E 003°36'0 0.0
2018-May-17 15:59N 52°09' E 003°36'0 0.0
2018-May-17 15:29N 52°09' E 003°36'0 0.1
2018-May-17 14:59N 52°09' E 003°36'0 0.2
2018-May-17 14:30N 52°09' E 003°36'0 0.2
2018-May-17 13:52N 52°08' E 003°36'0 0.1
2018-May-17 13:25N 52°08' E 003°36'0 0.0
2018-May-17 12:58N 52°08' E 003°36'0 0.1
2018-May-17 12:28N 52°08' E 003°36'0 0.0
2018-May-17 11:58N 52°08' E 003°36'0 0.1
2018-May-17 11:28N 52°08' E 003°36'0 0.0
2018-May-17 10:55N 52°08' E 003°36'0 0.0
2018-May-17 10:28N 52°08' E 003°36'0 0.0
2018-May-17 09:52N 52°08' E 003°36'0 0.0
2018-May-17 09:22N 52°08' E 003°36'0 0.0
2018-May-17 08:58N 52°08' E 003°36'0 0.0
2018-May-17 08:28N 52°08' E 003°36'0 0.0
2018-May-17 07:55N 52°08' E 003°36'0 0.0
2018-May-17 07:28N 52°08' E 003°36'0 0.0
2018-May-17 06:55N 52°08' E 003°36'0 0.0
2018-May-17 06:28N 52°08' E 003°36'0 0.0
2018-May-17 05:55N 52°08' E 003°36'0 0.2
2018-May-17 05:22N 52°08' E 003°36'0 0.2
2018-May-17 05:00N 52°09' E 003°36'0 0.1
2018-May-17 04:28N 52°09' E 003°36'0 0.1
2018-May-17 04:00N 52°09' E 003°36'0 0.0
2018-May-17 03:26N 52°09' E 003°36'0 0.0
2018-May-17 03:00N 52°09' E 003°36'0 0.1
2018-May-17 02:30N 52°09' E 003°36'0 0.2
2018-May-17 01:59N 52°08' E 003°36'0 0.2
2018-May-17 01:25N 52°08' E 003°36'0 0.1
2018-May-17 00:49N 52°08' E 003°36'0 0.0
2018-May-17 00:28N 52°08' E 003°36'0 0.0
2018-May-16 23:52N 52°08' E 003°36'0 0.1
2018-May-16 23:22N 52°08' E 003°36'0 0.0
2018-May-16 22:58N 52°08' E 003°36'0 0.0
2018-May-16 22:28N 52°08' E 003°36'0 0.0
2018-May-16 21:58N 52°08' E 003°36'0 0.0
2018-May-16 21:28N 52°08' E 003°36'0 0.0
2018-May-16 20:55N 52°08' E 003°36'0 0.0
2018-May-16 20:28N 52°08' E 003°36'0 0.0
2018-May-16 19:58N 52°08' E 003°36'0 0.0
2018-May-16 19:22N 52°08' E 003°36'0 0.0
2018-May-16 18:55N 52°08' E 003°36'0 0.0
2018-May-16 18:25N 52°08' E 003°36'0 0.0
2018-May-16 17:58N 52°08' E 003°36'0 0.0
2018-May-16 17:25N 52°08' E 003°36'0 0.1
2018-May-16 16:46N 52°08' E 003°36'0 0.2
2018-May-16 16:28N 52°08' E 003°36'0 0.1
2018-May-16 15:58N 52°08' E 003°36'0 0.1
2018-May-16 15:25N 52°09' E 003°36'0 0.0
2018-May-16 14:52N 52°09' E 003°36'0 0.1
2018-May-16 14:28N 52°09' E 003°36'0 0.1
2018-May-16 13:58N 52°09' E 003°36'0 0.1
2018-May-16 13:28N 52°08' E 003°36'0 0.1
2018-May-16 12:55N 52°08' E 003°36'0 0.1
2018-May-16 12:19N 52°08' E 003°36'0 0.0
2018-May-16 11:58N 52°08' E 003°36'0 0.0
2018-May-16 11:28N 52°08' E 003°36'0 0.0
2018-May-16 10:58N 52°08' E 003°36'0 0.0
2018-May-16 10:25N 52°08' E 003°36'0 0.0
2018-May-16 09:55N 52°08' E 003°36'0 0.0
2018-May-16 09:28N 52°08' E 003°36'0 0.0
2018-May-16 08:58N 52°08' E 003°36'0 0.0
2018-May-16 08:28N 52°08' E 003°36'0 0.0
2018-May-16 07:58N 52°08' E 003°36'0 0.0
2018-May-16 07:25N 52°08' E 003°36'0 0.0
2018-May-16 06:58N 52°08' E 003°36'0 0.0
2018-May-16 06:28N 52°08' E 003°36'0 0.0
2018-May-16 05:58N 52°08' E 003°36'0 0.2
2018-May-16 05:28N 52°08' E 003°36'0 0.2
2018-May-16 04:55N 52°09' E 003°36'0 0.1
2018-May-16 04:28N 52°09' E 003°36'0 0.0
2018-May-16 03:58N 52°09' E 003°36'0 0.0
2018-May-16 03:25N 52°09' E 003°36'0 0.0
2018-May-16 02:55N 52°09' E 003°36'0 0.0
2018-May-16 02:28N 52°09' E 003°36'0 0.0
2018-May-16 01:58N 52°09' E 003°36'0 0.0
2018-May-16 01:28N 52°09' E 003°36'0 0.1
2018-May-16 00:58N 52°09' E 003°36'0 0.3
2018-May-16 00:28N 52°08' E 003°36'0 0.1
2018-May-15 23:58N 52°08' E 003°36'0 0.1
2018-May-15 23:28N 52°08' E 003°36'0 0.0
2018-May-15 22:58N 52°08' E 003°36'0 0.0
2018-May-15 22:28N 52°08' E 003°36'0 0.0
2018-May-15 21:58N 52°08' E 003°36'0 0.0
2018-May-15 21:25N 52°08' E 003°36'0 0.0
2018-May-15 20:58N 52°08' E 003°36'0 0.0
2018-May-15 20:25N 52°08' E 003°36'0 0.0
2018-May-15 19:58N 52°08' E 003°36'0 0.0
2018-May-15 19:28N 52°08' E 003°36'0 0.1
2018-May-15 18:52N 52°08' E 003°36'0 0.0
2018-May-15 18:28N 52°08' E 003°36'0 0.1
2018-May-15 17:55N 52°08' E 003°36'0 0.3
2018-May-15 17:25N 52°09' E 003°36'0 0.1
2018-May-15 16:58N 52°09' E 003°36'0 0.0
2018-May-15 16:25N 52°09' E 003°36'0 0.0
2018-May-15 15:55N 52°09' E 003°36'0 0.0
2018-May-15 15:25N 52°09' E 003°36'0 0.0
2018-May-15 14:58N 52°09' E 003°36'0 0.0
2018-May-15 14:28N 52°09' E 003°36'0 0.0
2018-May-15 13:46N 52°09' E 003°36'0 0.0
2018-May-15 13:19N 52°09' E 003°36'0 0.1
2018-May-15 12:40N 52°09' E 003°36'0 0.2
2018-May-15 12:28N 52°09' E 003°36'0 0.2
2018-May-15 11:58N 52°08' E 003°36'0 0.1
2018-May-15 11:28N 52°08' E 003°36'0 0.1
2018-May-15 10:58N 52°08' E 003°36'0 0.0
2018-May-15 10:28N 52°08' E 003°36'0 0.0
2018-May-15 09:58N 52°08' E 003°36'0 0.0
2018-May-15 09:28N 52°08' E 003°36'0 0.0
2018-May-15 08:58N 52°08' E 003°36'0 0.0
2018-May-15 08:28N 52°08' E 003°36'0 0.0
2018-May-15 07:58N 52°08' E 003°36'0 0.0
2018-May-15 07:28N 52°08' E 003°36'0 0.0
2018-May-15 06:58N 52°08' E 003°36'0 0.1
2018-May-15 06:28N 52°08' E 003°36'0 0.0
2018-May-15 05:58N 52°08' E 003°36'0 0.0
2018-May-15 05:28N 52°08' E 003°36'0 0.1
2018-May-15 04:01N 52°09' E 003°36'0 0.0
2018-May-15 03:49N 52°09' E 003°36'0 0.0
2018-May-15 02:08N 52°09' E 003°36'0 0.0
2018-May-15 01:58N 52°09' E 003°36'0 0.0
2018-May-15 01:28N 52°09' E 003°36'0 0.0
2018-May-15 00:52N 52°09' E 003°36'0 0.2
2018-May-15 00:25N 52°09' E 003°36'0 0.2
2018-May-14 23:58N 52°08' E 003°36'  

Dump ship's entire track history